Time;durP1;ratioP1;P1;durP2;ratioP2;P2;SDS_P1;SDS_P2;PMS_P1;PMS_P2;Temp;Humidity;BMP_temperature;BMP_pressure;BME280_temperature;BME280_humidity;BME280_pressure;Samples;Min_cycle;Max_cycle;Signal;HPM_P1;HPM_P2
2023/05/11 00:00:33;;;;;;;;;21.00;16.00;;;;;13.40;78.80;99651.69;5116274;28;8825;-60
2023/05/11 00:03:00;;;;;;;;;11.50;9.75;;;;;13.40;78.90;99661.53;5116365;28;9655;-59
2023/05/11 00:05:28;;;;;;;;;18.50;17.00;;;;;13.43;78.55;99653.25;5115510;28;8840;-59
2023/05/11 00:07:56;;;;;;;;;12.75;12.00;;;;;13.44;78.88;99649.56;5116221;28;8838;-58
2023/05/11 00:10:24;;;;;;;;;20.50;17.25;;;;;13.46;78.90;99650.25;5116093;28;8848;-57
2023/05/11 00:12:51;;;;;;;;;17.00;12.75;;;;;13.47;78.86;99646.59;5115995;28;8812;-58
2023/05/11 00:15:19;;;;;;;;;17.00;14.00;;;;;13.46;78.21;99650.25;5119356;28;8839;-59
2023/05/11 00:17:47;;;;;;;;;12.75;12.00;;;;;13.45;78.26;99651.25;5120490;28;8870;-59
2023/05/11 00:20:15;;;;;;;;;12.50;11.75;;;;;13.42;78.64;99639.00;5120373;28;9496;-59
2023/05/11 00:22:43;;;;;;;;;12.75;12.00;;;;;13.41;78.24;99642.69;5119457;28;8836;-59
2023/05/11 00:25:11;;;;;;;;;15.00;15.00;;;;;13.39;78.79;99638.47;5119924;28;8855;-58
2023/05/11 00:27:39;;;;;;;;;17.50;15.50;;;;;13.37;78.25;99638.59;5120001;28;8816;-58
2023/05/11 00:30:09;;;;;;;;;15.00;12.50;;;;;13.35;78.59;99642.44;5120439;28;9523;-59
2023/05/11 00:32:36;;;;;;;;;10.00;8.75;;;;;13.36;78.30;99638.75;5120263;28;8831;-59
2023/05/11 00:35:04;;;;;;;;;6.25;4.50;;;;;13.39;78.99;99641.13;5120197;28;8843;-59
2023/05/11 00:37:32;;;;;;;;;15.25;14.00;;;;;13.38;78.46;99644.81;5119547;28;8812;-59
2023/05/11 00:39:59;;;;;;;;;12.50;12.00;;;;;13.40;78.76;99643.66;5120129;28;8820;-59
2023/05/11 00:42:29;;;;;;;;;18.75;13.00;;;;;13.40;78.06;99634.78;5119856;28;8819;-59
2023/05/11 00:44:57;;;;;;;;;12.25;10.25;;;;;13.36;78.91;99636.91;5120059;28;8861;-60
2023/05/11 00:47:25;;;;;;;;;13.50;12.00;;;;;13.39;79.21;99638.47;5119631;28;8836;-58
2023/05/11 00:49:52;;;;;;;;;11.00;10.75;;;;;13.39;78.52;99630.44;5119922;28;8804;-58
2023/05/11 00:52:20;;;;;;;;;15.00;13.00;;;;;13.36;78.44;99622.72;5119767;28;8828;-58
2023/05/11 00:54:48;;;;;;;;;12.50;11.50;;;;;13.35;78.22;99629.06;5119871;28;8824;-58
2023/05/11 00:57:16;;;;;;;;;13.50;12.75;;;;;13.32;78.40;99632.88;5119662;28;8843;-59
2023/05/11 00:59:43;;;;;;;;;10.75;10.25;;;;;13.30;79.02;99631.31;5119465;28;8836;-58
2023/05/11 01:02:11;;;;;;;;;15.00;13.50;;;;;13.28;78.99;99642.16;5119354;28;8816;-58
2023/05/11 01:04:38;;;;;;;;;15.75;14.00;;;;;13.27;79.18;99639.63;5119353;28;8852;-60
2023/05/11 01:07:06;;;;;;;;;15.50;12.50;;;;;13.28;78.77;99644.00;5119596;28;8823;-60
2023/05/11 01:09:34;;;;;;;;;17.00;16.00;;;;;13.28;78.63;99644.00;5118872;28;8836;-58
2023/05/11 01:12:01;;;;;;;;;9.25;9.00;;;;;13.26;79.11;99638.78;5119459;28;8812;-58
2023/05/11 01:14:29;;;;;;;;;13.00;12.00;;;;;13.27;79.07;99640.47;5119066;28;8819;-58
2023/05/11 01:16:57;;;;;;;;;15.00;13.00;;;;;13.27;78.68;99644.97;5119306;28;8838;-58
2023/05/11 01:19:25;;;;;;;;;23.00;17.50;;;;;13.27;78.60;99639.63;5118841;28;9505;-58
2023/05/11 01:21:53;;;;;;;;;15.75;13.50;;;;;13.26;79.20;99645.97;5118990;28;8856;-58
2023/05/11 01:24:21;;;;;;;;;18.25;17.25;;;;;13.27;79.16;99639.63;5118919;28;8912;-58
2023/05/11 01:26:49;;;;;;;;;13.25;11.25;;;;;13.27;79.19;99645.81;5118889;28;8832;-58
2023/05/11 01:29:16;;;;;;;;;19.75;18.00;;;;;13.27;78.82;99647.63;5118553;28;8893;-59
2023/05/11 01:31:44;;;;;;;;;17.50;14.75;;;;;13.30;78.86;99653.53;5119059;28;8828;-58
2023/05/11 01:34:12;;;;;;;;;17.00;14.50;;;;;13.32;78.94;99650.72;5118980;28;8966;-59
2023/05/11 01:36:40;;;;;;;;;12.75;12.00;;;;;13.33;78.78;99652.41;5118962;28;8824;-58
2023/05/11 01:39:07;;;;;;;;;15.25;12.50;;;;;13.36;78.88;99650.28;5118435;28;8800;-59
2023/05/11 01:41:35;;;;;;;;;17.50;15.00;;;;;13.39;78.65;99649.16;5119229;28;9506;-58
2023/05/11 01:44:03;;;;;;;;;9.50;9.50;;;;;13.37;78.97;99645.78;5119827;28;8855;-59
2023/05/11 01:46:31;;;;;;;;;17.25;16.50;;;;;13.37;78.42;99645.78;5118854;28;8824;-60
2023/05/11 01:48:59;;;;;;;;;21.50;14.50;;;;;13.35;78.65;99656.63;5118406;28;8824;-60
2023/05/11 01:51:27;;;;;;;;;18.50;17.50;;;;;13.34;78.86;99654.09;5117083;28;8844;-61
2023/05/11 01:53:54;;;;;;;;;14.00;11.00;;;;;13.34;78.34;99654.94;5118402;28;8837;-59
2023/05/11 01:56:23;;;;;;;;;17.25;14.75;;;;;13.33;78.40;99650.59;5117949;28;8839;-59
2023/05/11 01:58:51;;;;;;;;;14.25;13.25;;;;;13.34;78.87;99657.63;5117801;28;8846;-61
2023/05/11 02:01:18;;;;;;;;;14.25;14.25;;;;;13.34;79.14;99651.41;5119074;28;9473;-60
2023/05/11 02:03:46;;;;;;;;;14.00;13.50;;;;;13.35;78.89;99661.16;5118336;28;8969;-59
2023/05/11 02:06:14;;;;;;;;;13.00;12.50;;;;;13.37;78.40;99659.16;5118400;28;8831;-59
2023/05/11 02:08:42;;;;;;;;;12.00;12.00;;;;;13.38;78.73;99660.84;5118178;28;8811;-61
2023/05/11 02:11:10;;;;;;;;;17.50;16.00;;;;;13.42;78.15;99659.53;5118689;28;8859;-60
2023/05/11 02:13:38;;;;;;;;;15.25;14.00;;;;;13.44;78.62;99662.94;5118287;28;8912;-61
2023/05/11 02:16:05;;;;;;;;;24.50;16.50;;;;;13.47;78.30;99657.28;5118039;28;8828;-60
2023/05/11 02:18:33;;;;;;;;;18.25;17.00;;;;;13.46;78.53;99651.13;5117372;28;8830;-58
2023/05/11 02:21:01;;;;;;;;;15.00;13.00;;;;;13.47;78.42;99650.13;5118247;28;8828;-61
2023/05/11 02:23:29;;;;;;;;;6.25;5.50;;;;;13.47;78.62;99662.63;5117513;28;8816;-61
2023/05/11 02:25:56;;;;;;;;;14.25;11.00;;;;;13.46;78.08;99653.78;5117827;28;8873;-61
2023/05/11 02:28:24;;;;;;;;;14.50;13.50;;;;;13.49;78.88;99661.50;5117162;28;8816;-61
2023/05/11 02:30:52;;;;;;;;;16.00;14.75;;;;;13.49;78.45;99660.66;5117819;28;8851;-60
2023/05/11 02:33:20;;;;;;;;;12.25;10.00;;;;;13.48;78.29;99650.94;5117745;28;9524;-60
2023/05/11 02:35:48;;;;;;;;;12.50;12.50;;;;;13.48;78.62;99650.94;5117584;28;8828;-58
2023/05/11 02:38:16;;;;;;;;;12.75;12.50;;;;;13.47;78.79;99647.44;5116855;28;8808;-61
2023/05/11 02:40:43;;;;;;;;;15.50;9.00;;;;;13.47;78.99;99651.94;5117667;28;8839;-61
2023/05/11 02:43:11;;;;;;;;;14.50;12.00;;;;;13.45;78.66;99657.41;5118014;28;8808;-60
2023/05/11 02:45:39;;;;;;;;;18.00;16.25;;;;;13.44;78.37;99669.13;5118056;28;9705;-61
2023/05/11 02:48:07;;;;;;;;;12.25;12.00;;;;;13.44;78.37;99657.59;5117513;28;8867;-61
2023/05/11 02:50:35;;;;;;;;;12.00;10.50;;;;;13.42;78.43;99659.53;5117310;28;8921;-61
2023/05/11 02:53:03;;;;;;;;;15.50;14.00;;;;;13.42;78.97;99665.75;5117464;28;8812;-60
2023/05/11 02:55:30;;;;;;;;;17.50;15.50;;;;;13.45;78.44;99659.28;5117224;28;8855;-62
2023/05/11 02:57:58;;;;;;;;;10.50;10.00;;;;;13.46;78.58;99666.31;5117189;28;8922;-61
2023/05/11 03:00:26;;;;;;;;;15.25;12.75;;;;;13.47;78.76;99657.28;5117478;28;8824;-60
2023/05/11 03:02:54;;;;;;;;;16.75;14.25;;;;;13.47;78.62;99659.97;5117016;28;8835;-61
2023/05/11 03:05:23;;;;;;;;;15.00;13.00;;;;;13.47;78.65;99660.81;5117147;28;8860;-58
2023/05/11 03:07:50;;;;;;;;;11.50;10.00;;;;;13.47;78.13;99667.97;5117113;28;8835;-58
2023/05/11 03:10:18;;;;;;;;;14.00;12.00;;;;;13.47;78.84;99667.97;5116870;28;8843;-61
2023/05/11 03:12:47;;;;;;;;;13.25;11.25;;;;;13.45;78.62;99665.44;5116841;28;8831;-58
2023/05/11 03:15:14;;;;;;;;;11.25;10.50;;;;;13.44;79.11;99668.28;5116819;28;8824;-61
2023/05/11 03:17:42;;;;;;;;;18.75;15.25;;;;;13.45;78.80;99675.31;5116387;28;8824;-61
2023/05/11 03:20:10;;;;;;;;;18.00;15.50;;;;;13.45;78.93;99670.78;5116339;28;8793;-61
2023/05/11 03:22:38;;;;;;;;;15.75;12.75;;;;;13.45;78.55;99668.13;5117308;28;8855;-60
2023/05/11 03:25:05;;;;;;;;;18.50;12.75;;;;;13.44;78.94;99663.75;5116638;28;8832;-61
2023/05/11 03:27:33;;;;;;;;;12.75;12.00;;;;;13.42;78.29;99660.41;5116771;28;8828;-61
2023/05/11 03:30:01;;;;;;;;;16.00;14.25;;;;;13.41;78.52;99663.22;5116749;28;8812;-61
2023/05/11 03:32:29;;;;;;;;;15.75;13.00;;;;;13.40;79.04;99665.06;5116677;28;8860;-61
2023/05/11 03:34:57;;;;;;;;;15.75;15.00;;;;;13.37;78.91;99657.31;5117184;28;8839;-61
2023/05/11 03:37:24;;;;;;;;;6.75;5.00;;;;;13.35;79.12;99658.47;5116777;28;8863;-61
2023/05/11 03:39:52;;;;;;;;;18.00;16.00;;;;;13.34;79.08;99664.78;5115991;28;8781;-61
2023/05/11 03:42:20;;;;;;;;;23.00;20.25;;;;;13.32;79.00;99656.06;5115541;28;8921;-61
2023/05/11 03:44:47;;;;;;;;;16.00;14.00;;;;;13.29;79.42;99654.53;5116235;28;8857;-61
2023/05/11 03:47:15;;;;;;;;;23.25;18.00;;;;;13.28;78.71;99657.38;5116266;28;8828;-61
2023/05/11 03:49:43;;;;;;;;;15.00;14.00;;;;;13.27;79.15;99655.66;5115171;28;8855;-60
2023/05/11 03:52:11;;;;;;;;;12.00;11.50;;;;;13.28;79.15;99657.38;5116167;28;8921;-61
2023/05/11 03:54:38;;;;;;;;;6.00;4.50;;;;;13.29;79.39;99651.84;5116131;28;8851;-60
2023/05/11 03:57:06;;;;;;;;;16.00;15.50;;;;;13.31;78.97;99651.72;5115721;28;8839;-60
2023/05/11 03:59:35;;;;;;;;;17.75;15.00;;;;;13.34;79.13;99651.41;5115643;28;9552;-58
2023/05/11 04:02:03;;;;;;;;;12.75;9.75;;;;;13.35;79.07;99653.13;5115595;28;8824;-60
2023/05/11 04:04:31;;;;;;;;;15.50;14.50;;;;;13.38;78.94;99658.16;5115923;28;8862;-61
2023/05/11 04:06:58;;;;;;;;;16.50;14.00;;;;;13.39;78.82;99654.50;5116078;28;8886;-59
2023/05/11 04:09:26;;;;;;;;;18.00;15.00;;;;;13.40;78.82;99645.50;5115610;28;8815;-60
2023/05/11 04:11:54;;;;;;;;;8.50;8.00;;;;;13.42;78.67;99651.53;5116345;28;8866;-59
2023/05/11 04:14:21;;;;;;;;;17.00;15.50;;;;;13.42;78.66;99651.53;5115888;28;8838;-59
2023/05/11 04:16:49;;;;;;;;;15.00;13.50;;;;;13.42;78.76;99654.19;5115866;28;8850;-61
2023/05/11 04:19:17;;;;;;;;;12.50;11.75;;;;;13.42;78.67;99654.19;5115702;28;8812;-57
2023/05/11 04:21:45;;;;;;;;;20.75;16.50;;;;;13.42;78.91;99660.41;5115624;28;8841;-60
2023/05/11 04:24:13;;;;;;;;;15.00;13.00;;;;;13.45;78.98;99653.91;5115796;28;9489;-58
2023/05/11 04:26:41;;;;;;;;;15.50;14.00;;;;;13.45;78.33;99657.41;5115448;28;8828;-59
2023/05/11 04:29:08;;;;;;;;;7.00;7.00;;;;;13.46;78.81;99660.94;5115308;28;8916;-59
2023/05/11 04:31:36;;;;;;;;;14.00;13.25;;;;;13.48;78.38;99658.97;5115019;28;8839;-61
2023/05/11 04:34:04;;;;;;;;;14.00;12.50;;;;;13.49;78.39;99660.66;5115439;28;8919;-61
2023/05/11 04:36:32;;;;;;;;;13.75;13.00;;;;;13.48;78.67;99659.81;5115734;28;8843;-60
2023/05/11 04:39:00;;;;;;;;;21.50;18.25;;;;;13.48;79.01;99658.97;5115850;28;8827;-60
2023/05/11 04:41:27;;;;;;;;;10.75;9.00;;;;;13.47;78.30;99673.34;5115246;28;8817;-60
2023/05/11 04:43:55;;;;;;;;;13.00;12.50;;;;;13.45;78.69;99667.31;5116508;28;8843;-58
2023/05/11 04:46:23;;;;;;;;;15.33;14.67;;;;;13.45;78.57;99669.97;5115350;28;8812;-59
2023/05/11 04:48:51;;;;;;;;;15.25;13.25;;;;;13.44;78.89;99673.63;5115567;28;8847;-58
2023/05/11 04:51:19;;;;;;;;;18.00;15.25;;;;;13.44;79.12;99674.47;5114417;28;9871;-59
2023/05/11 04:53:46;;;;;;;;;19.00;16.25;;;;;13.44;78.80;99676.31;5114411;28;8836;-59
2023/05/11 04:56:14;;;;;;;;;21.50;20.00;;;;;13.42;78.89;99670.25;5114187;28;9533;-58
2023/05/11 04:58:42;;;;;;;;;18.50;12.50;;;;;13.40;78.96;99677.59;5114944;28;8835;-58
2023/05/11 05:01:10;;;;;;;;;20.50;17.50;;;;;13.37;79.43;99673.38;5117121;28;8823;-58
2023/05/11 05:03:37;;;;;;;;;13.75;10.75;;;;;13.36;78.96;99678.88;5118783;28;8963;-58
2023/05/11 05:06:05;;;;;;;;;14.50;14.00;;;;;13.36;78.97;99671.69;5119116;28;8997;-57
2023/05/11 05:08:33;;;;;;;;;10.50;6.00;;;;;13.35;79.15;99675.34;5119204;28;8843;-59
2023/05/11 05:11:00;;;;;;;;;15.75;15.00;;;;;13.34;79.32;99678.16;5117903;28;8804;-58
2023/05/11 05:13:28;;;;;;;;;12.25;10.00;;;;;13.31;79.07;99682.00;5118458;28;8824;-58
2023/05/11 05:15:56;;;;;;;;;12.50;8.75;;;;;13.29;79.18;99680.44;5117488;28;8835;-57
2023/05/11 05:18:24;;;;;;;;;18.00;16.00;;;;;13.28;79.18;99681.44;5117063;28;8836;-58
2023/05/11 05:20:51;;;;;;;;;16.50;12.75;;;;;13.25;79.41;99677.22;5116792;28;8859;-58
2023/05/11 05:23:19;;;;;;;;;24.75;20.00;;;;;13.27;79.38;99690.44;5117638;28;8827;-59
2023/05/11 05:25:47;;;;;;;;;18.00;16.75;;;;;13.30;79.50;99690.16;5116972;28;8850;-59
2023/05/11 05:28:15;;;;;;;;;21.50;20.00;;;;;13.32;79.52;99682.81;5117608;28;9501;-58
2023/05/11 05:30:43;;;;;;;;;21.50;18.25;;;;;13.36;79.05;99684.22;5117164;28;8840;-57
2023/05/11 05:33:10;;;;;;;;;21.50;20.00;;;;;13.41;79.11;99695.31;5117609;28;8828;-60
2023/05/11 05:35:38;;;;;;;;;21.50;18.75;;;;;13.45;78.72;99696.72;5117733;28;9540;-60
2023/05/11 05:38:06;;;;;;;;;20.75;19.75;;;;;13.48;78.57;99696.41;5117818;28;8850;-60
2023/05/11 05:40:38;;;;;;;;;16.50;15.00;;;;;13.51;78.31;99707.66;5116975;28;8832;-59
2023/05/11 05:43:17;;;;;;;;;15.25;12.75;;;;;13.53;78.29;99707.53;5117228;28;9501;-61
2023/05/11 05:45:45;;;;;;;;;17.00;13.00;;;;;13.56;78.59;99710.75;5116572;28;8836;-60
2023/05/11 05:48:13;;;;;;;;;21.00;18.50;;;;;13.60;77.91;99712.13;5116729;28;8839;-59
2023/05/11 05:50:41;;;;;;;;;22.25;18.25;;;;;13.65;78.24;99714.38;5116637;28;8851;-60
2023/05/11 05:53:08;;;;;;;;;20.00;17.00;;;;;13.69;78.13;99715.78;5115497;28;8844;-59
2023/05/11 05:55:36;;;;;;;;;17.25;14.50;;;;;13.75;78.61;99715.19;5114464;28;8839;-60
2023/05/11 05:58:04;;;;;;;;;22.50;20.75;;;;;13.81;78.42;99715.44;5115751;28;8843;-60
2023/05/11 06:00:32;;;;;;;;;19.00;17.00;;;;;13.85;77.71;99716.84;5116252;28;8836;-62
2023/05/11 06:02:59;;;;;;;;;21.00;17.00;;;;;13.91;78.16;99715.41;5116620;28;9502;-61
2023/05/11 06:05:27;;;;;;;;;22.50;20.25;;;;;13.93;78.17;99714.25;5116355;28;8972;-59
2023/05/11 06:07:55;;;;;;;;;15.50;14.00;;;;;13.95;77.41;99717.63;5115497;28;8848;-59
2023/05/11 06:10:37;;;;;;;;;18.00;16.50;;;;;13.98;77.85;99713.81;5114851;28;8874;-60
2023/05/11 06:13:05;;;;;;;;;24.75;21.75;;;;;14.01;77.81;99722.38;5115116;28;9008;-59
2023/05/11 06:15:33;;;;;;;;;21.50;18.00;;;;;14.06;77.50;99722.78;5114931;28;8834;-60
2023/05/11 06:18:00;;;;;;;;;18.50;16.50;;;;;14.12;77.97;99714.13;5114801;28;8840;-61
2023/05/11 06:20:28;;;;;;;;;20.25;17.00;;;;;14.21;77.11;99715.94;5113974;28;8839;-59
2023/05/11 06:22:56;;;;;;;;;18.75;15.25;;;;;14.30;77.46;99709.72;5114008;28;8862;-60
2023/05/11 06:25:24;;;;;;;;;21.00;18.00;;;;;14.39;77.23;99715.97;5114755;28;8815;-59
2023/05/11 06:27:52;;;;;;;;;12.25;10.50;;;;;14.46;76.63;99715.22;5114687;28;8824;-59
2023/05/11 06:30:20;;;;;;;;;21.25;18.50;;;;;14.52;76.56;99716.44;5115101;28;8844;-60
2023/05/11 06:32:48;;;;;;;;;16.00;14.50;;;;;14.56;76.71;99717.84;5115057;28;8835;-61
2023/05/11 06:35:16;;;;;;;;;16.75;16.75;;;;;14.58;76.88;99716.66;5114802;28;8866;-59
2023/05/11 06:37:44;;;;;;;;;14.25;14.25;;;;;14.60;76.51;99716.53;5115398;28;8966;-60
2023/05/11 06:40:12;;;;;;;;;12.25;9.50;;;;;14.63;76.98;99719.75;5115053;28;8970;-60
2023/05/11 06:42:40;;;;;;;;;17.25;15.00;;;;;14.66;76.59;99715.94;5115342;28;8819;-59
2023/05/11 06:45:07;;;;;;;;;16.50;15.00;;;;;14.68;76.23;99721.97;5115453;28;8928;-60
2023/05/11 06:47:35;;;;;;;;;20.75;18.50;;;;;14.69;76.66;99724.50;5114381;28;8839;-60
2023/05/11 06:50:03;;;;;;;;;25.00;21.50;;;;;14.74;76.39;99721.38;5114489;28;8938;-62
2023/05/11 06:52:31;;;;;;;;;19.50;17.75;;;;;14.78;76.26;99722.72;5114147;28;8949;-61
2023/05/11 06:55:00;;;;;;;;;19.25;16.00;;;;;14.81;76.57;99722.44;5114418;28;8835;-62
2023/05/11 06:57:28;;;;;;;;;22.25;20.75;;;;;14.82;76.82;99722.28;5114408;28;8843;-60
2023/05/11 06:59:56;;;;;;;;;26.75;21.00;;;;;14.86;76.18;99731.69;5114199;28;8850;-62
2023/05/11 07:02:24;;;;;;;;;23.50;21.25;;;;;14.89;76.34;99727.88;5114825;28;8850;-62
2023/05/11 07:04:53;;;;;;;;;19.75;17.50;;;;;14.93;75.91;99731.91;5115079;28;8844;-62
2023/05/11 07:07:21;;;;;;;;;21.75;21.50;;;;;14.99;76.04;99731.28;5114178;28;8835;-62
2023/05/11 07:09:49;;;;;;;;;24.50;22.00;;;;;15.05;76.26;99736.03;5114098;28;8928;-63
2023/05/11 07:12:17;;;;;;;;;21.50;16.00;;;;;15.12;75.93;99731.75;5113948;28;8843;-62
2023/05/11 07:14:46;;;;;;;;;17.25;14.25;;;;;15.19;75.83;99735.50;5113496;28;8902;-59
2023/05/11 07:17:13;;;;;;;;;19.50;19.00;;;;;15.19;76.04;99720.25;5112957;28;8895;-59
2023/05/11 07:19:41;;;;;;;;;26.50;23.00;;;;;15.20;75.41;99729.13;5112691;28;8840;-60
2023/05/11 07:22:09;;;;;;;;;16.00;13.00;;;;;15.20;75.70;99718.38;5112987;28;9505;-62
2023/05/11 07:24:40;;;;;;;;;21.00;18.50;;;;;15.24;76.19;99725.16;5113253;28;8839;-59
2023/05/11 07:27:08;;;;;;;;;19.50;17.00;;;;;15.27;75.65;99724.81;5113713;28;8948;-58
2023/05/11 07:29:36;;;;;;;;;13.00;11.00;;;;;15.31;76.02;99724.38;5114275;28;8843;-59
2023/05/11 07:32:04;;;;;;;;;20.75;17.25;;;;;15.37;75.62;99725.56;5115075;28;8833;-60
2023/05/11 07:34:32;;;;;;;;;20.25;18.25;;;;;15.40;75.63;99723.41;5116149;28;9536;-61
2023/05/11 07:37:00;;;;;;;;;15.50;12.75;;;;;15.41;75.30;99727.78;5115857;28;9014;-61
2023/05/11 07:39:28;;;;;;;;;24.00;21.00;;;;;15.41;75.27;99733.16;5115800;28;8870;-59
2023/05/11 07:41:56;;;;;;;;;13.50;13.50;;;;;15.42;75.41;99734.00;5115515;28;8836;-60
2023/05/11 07:44:25;;;;;;;;;14.50;13.50;;;;;15.44;75.62;99727.50;5115801;28;8823;-59
2023/05/11 07:46:53;;;;;;;;;13.50;13.00;;;;;15.48;75.17;99726.16;5115659;28;8872;-60
2023/05/11 07:49:21;;;;;;;;;19.50;16.00;;;;;15.50;75.73;99732.22;5115000;28;8852;-62
2023/05/11 07:52:06;;;;;;;;;18.75;16.00;;;;;15.54;75.43;99732.75;5115178;28;8847;-60
2023/05/11 07:54:34;;;;;;;;;16.50;14.00;;;;;15.55;75.36;99732.56;5114082;28;8936;-62
2023/05/11 07:57:02;;;;;;;;;16.75;11.75;;;;;15.59;75.32;99727.72;5113863;28;8867;-62
2023/05/11 07:59:31;;;;;;;;;18.25;16.00;;;;;15.59;75.51;99730.41;5113090;28;8933;-59
2023/05/11 08:01:59;;;;;;;;;16.50;13.00;;;;;15.57;74.98;99732.44;5113699;28;8832;-61
2023/05/11 08:04:27;;;;;;;;;25.75;19.75;;;;;15.56;75.31;99738.81;5114042;28;8851;-62
2023/05/11 08:06:55;;;;;;;;;14.50;12.75;;;;;15.55;75.38;99737.94;5114239;28;8836;-62
2023/05/11 08:09:23;;;;;;;;;21.50;19.00;;;;;15.53;75.04;99742.63;5114762;28;9594;-62
2023/05/11 08:11:52;;;;;;;;;19.50;16.75;;;;;15.51;75.58;99741.09;5114528;28;8905;-60
2023/05/11 08:14:20;;;;;;;;;17.25;14.50;;;;;15.50;75.40;99736.75;5113849;28;8839;-60
2023/05/11 08:16:49;;;;;;;;;16.75;16.75;;;;;15.52;75.32;99740.09;5113181;28;8832;-62
2023/05/11 08:19:17;;;;;;;;;24.25;20.00;;;;;15.60;75.27;99741.00;5113248;28;8858;-60
2023/05/11 08:21:46;;;;;;;;;17.75;16.50;;;;;15.72;74.86;99742.44;5113915;28;9574;-61
2023/05/11 08:24:14;;;;;;;;;21.50;19.00;;;;;15.83;75.01;99749.34;5114281;28;9525;-59
2023/05/11 08:26:42;;;;;;;;;12.75;10.50;;;;;15.95;74.08;99748.06;5115317;28;8832;-61
2023/05/11 08:29:10;;;;;;;;;26.25;23.25;;;;;16.05;74.81;99743.41;5114853;28;8924;-62
2023/05/11 08:31:38;;;;;;;;;18.00;18.00;;;;;16.09;74.68;99740.25;5114869;28;8824;-60
2023/05/11 08:34:06;;;;;;;;;20.50;16.00;;;;;16.16;74.31;99745.81;5114421;28;8901;-61
2023/05/11 08:36:46;;;;;;;;;19.50;16.00;;;;;16.26;73.59;99742.00;5118435;28;9505;-59
2023/05/11 08:39:14;;;;;;;;;10.00;9.00;;;;;16.32;73.65;99739.50;5118512;28;8914;-62
2023/05/11 08:41:59;;;;;;;;;19.00;18.25;;;;;16.38;73.91;99739.88;5119151;28;9510;-59
2023/05/11 08:44:27;;;;;;;;;23.00;19.25;;;;;16.39;73.86;99735.19;5118815;28;8812;-61
2023/05/11 08:46:56;;;;;;;;;16.00;14.50;;;;;16.38;73.60;99740.72;5118026;28;8909;-59
2023/05/11 08:49:44;;;;;;;;;22.25;20.25;;;;;16.38;74.01;99744.25;5118114;28;8984;-60
2023/05/11 08:52:12;;;;;;;;;21.00;17.50;;;;;16.40;73.59;99742.25;5118336;28;8827;-61
2023/05/11 08:54:40;;;;;;;;;19.50;16.00;;;;;16.42;73.48;99742.09;5117968;28;8843;-59
2023/05/11 08:57:08;;;;;;;;;18.00;16.50;;;;;16.47;73.91;99745.13;5118211;28;8831;-62
2023/05/11 08:59:37;;;;;;;;;18.75;16.25;;;;;16.57;73.21;99740.44;5117729;28;8843;-59
2023/05/11 09:02:05;;;;;;;;;15.75;15.50;;;;;16.74;73.31;99736.78;5117369;28;8862;-62
2023/05/11 09:04:32;;;;;;;;;16.00;15.25;;;;;16.88;72.90;99745.03;5117377;28;8866;-62
2023/05/11 09:07:01;;;;;;;;;22.50;20.25;;;;;17.05;72.53;99735.97;5116565;28;8836;-59
2023/05/11 09:09:29;;;;;;;;;15.25;12.50;;;;;17.25;72.00;99739.97;5116090;28;8824;-62
2023/05/11 09:11:57;;;;;;;;;9.80;8.20;;;;;17.49;71.48;99736.47;5115115;28;8852;-61
2023/05/11 09:14:25;;;;;;;;;18.50;15.00;;;;;17.72;70.98;99727.50;5115229;28;8836;-61
2023/05/11 09:16:54;;;;;;;;;18.20;16.80;;;;;18.02;70.02;99728.56;5116384;28;8844;-61
2023/05/11 09:19:22;;;;;;;;;18.20;16.00;;;;;18.32;70.08;99725.94;5116724;28;8827;-60
2023/05/11 09:21:51;;;;;;;;;16.00;14.20;;;;;18.48;69.56;99733.94;5117351;28;8974;-60
2023/05/11 09:24:19;;;;;;;;;18.00;15.20;;;;;18.64;69.09;99723.06;5117541;28;8843;-62
2023/05/11 09:26:47;;;;;;;;;16.80;15.00;;;;;18.81;68.74;99723.81;5117943;28;8865;-60
2023/05/11 09:29:15;;;;;;;;;18.60;16.40;;;;;18.99;68.48;99721.63;5117466;28;8832;-60
2023/05/11 09:31:43;;;;;;;;;21.60;18.00;;;;;19.17;67.74;99711.34;5116618;28;8871;-60
2023/05/11 09:34:11;;;;;;;;;15.60;12.40;;;;;19.24;68.06;99713.19;5117448;28;8864;-59
2023/05/11 09:36:40;;;;;;;;;22.60;20.00;;;;;19.33;67.83;99713.94;5117043;28;8909;-59
2023/05/11 09:39:07;;;;;;;;;21.20;17.80;;;;;19.45;67.52;99716.03;5116131;28;8819;-59
2023/05/11 09:41:42;;;;;;;;;20.20;18.80;;;;;19.66;67.26;99705.31;5116431;28;8960;-60
2023/05/11 09:44:10;;;;;;;;;20.20;17.60;;;;;19.91;66.91;99704.03;5116279;28;8905;-61
2023/05/11 09:46:38;;;;;;;;;17.60;16.60;;;;;20.17;65.81;99709.81;5115160;28;8824;-60
2023/05/11 09:49:06;;;;;;;;;17.80;12.20;;;;;20.36;66.05;99709.22;5114719;28;8836;-60
2023/05/11 09:51:34;;;;;;;;;17.80;14.60;;;;;20.57;65.20;99705.72;5115027;28;8839;-60
2023/05/11 09:54:03;;;;;;;;;13.20;13.20;;;;;20.77;64.96;99708.47;5115708;28;8850;-59
2023/05/11 09:56:31;;;;;;;;;13.80;12.40;;;;;20.97;64.81;99703.28;5115506;28;8971;-61
2023/05/11 09:59:00;;;;;;;;;15.00;14.00;;;;;21.26;64.24;99705.81;5115602;28;8851;-59
2023/05/11 10:01:28;;;;;;;;;17.00;16.60;;;;;21.51;63.97;99701.63;5116413;28;8904;-60
2023/05/11 10:03:56;;;;;;;;;14.40;11.80;;;;;21.71;63.66;99700.75;5116040;28;8864;-61
2023/05/11 10:06:40;;;;;;;;;17.40;15.80;;;;;21.88;63.27;99690.44;5114960;28;8835;-60
2023/05/11 10:09:08;;;;;;;;;16.80;14.40;;;;;21.88;63.38;99685.84;5114843;28;8917;-62
2023/05/11 10:11:36;;;;;;;;;16.60;15.40;;;;;21.79;63.50;99697.06;5116282;28;8858;-60
2023/05/11 10:14:04;;;;;;;;;16.20;14.00;;;;;21.86;63.47;99690.63;5115365;28;8835;-62
2023/05/11 10:16:32;;;;;;;;;15.20;14.40;;;;;22.10;63.44;99686.59;5115086;28;8827;-61
2023/05/11 10:19:00;;;;;;;;;15.60;13.40;;;;;22.51;62.73;99687.41;5115684;28;8812;-61
2023/05/11 10:21:28;;;;;;;;;17.60;14.00;;;;;22.75;61.97;99684.97;5115866;28;8835;-60
2023/05/11 10:23:57;;;;;;;;;8.60;7.20;;;;;22.66;62.17;99683.50;5115471;28;8844;-62
2023/05/11 10:26:25;;;;;;;;;13.40;12.80;;;;;22.48;62.65;99679.69;5115937;28;8824;-61
2023/05/11 10:28:53;;;;;;;;;16.20;14.20;;;;;22.52;62.91;99694.50;5116011;28;8908;-62
2023/05/11 10:31:22;;;;;;;;;15.60;14.00;;;;;22.43;63.03;99693.03;5115447;28;8832;-60
2023/05/11 10:33:51;;;;;;;;;14.80;12.00;;;;;22.18;63.64;99689.13;5115771;28;8863;-61
2023/05/11 10:36:20;;;;;;;;;16.60;16.00;;;;;21.90;64.04;99691.06;5117071;28;9583;-60
2023/05/11 10:38:48;;;;;;;;;16.60;15.40;;;;;21.51;65.09;99697.06;5117056;28;8824;-63
2023/05/11 10:41:16;;;;;;;;;15.80;15.40;;;;;21.07;65.83;99693.78;5115937;28;9590;-62
2023/05/11 10:43:44;;;;;;;;;21.80;18.40;;;;;20.68;66.86;99692.53;5116113;28;8898;-60
2023/05/11 10:46:15;;;;;;;;;18.20;16.60;;;;;20.40;66.96;99698.88;5116285;28;8836;-60
2023/05/11 10:48:44;;;;;;;;;27.20;19.80;;;;;20.18;67.48;99697.97;5115811;28;8839;-61
2023/05/11 10:51:12;;;;;;;;;21.60;15.40;;;;;19.98;67.83;99691.44;5115709;28;8838;-61
2023/05/11 10:53:40;;;;;;;;;18.80;15.60;;;;;19.88;67.95;99698.16;5115509;28;8847;-60
2023/05/11 10:56:08;;;;;;;;;14.20;14.00;;;;;19.83;68.48;99693.31;5115504;28;9505;-60
2023/05/11 10:58:37;;;;;;;;;16.60;14.20;;;;;19.81;67.93;99694.53;5113960;28;8839;-62
2023/05/11 11:01:05;;;;;;;;;15.00;15.00;;;;;19.78;67.90;99690.31;5113685;28;8844;-61
2023/05/11 11:03:33;;;;;;;;;17.80;16.20;;;;;19.76;67.81;99695.09;5113897;28;8819;-61
2023/05/11 11:06:01;;;;;;;;;24.40;20.20;;;;;19.73;67.81;99695.44;5114069;28;8847;-61
2023/05/11 11:08:29;;;;;;;;;17.60;16.00;;;;;19.75;68.04;99693.41;5113928;28;8850;-61
2023/05/11 11:10:58;;;;;;;;;21.40;20.40;;;;;19.79;67.78;99692.00;5114345;28;8852;-63
2023/05/11 11:13:26;;;;;;;;;18.80;16.40;;;;;19.99;67.51;99692.25;5115303;28;9713;-60
2023/05/11 11:15:54;;;;;;;;;14.80;14.00;;;;;20.07;66.60;99687.63;5115062;28;8832;-62
2023/05/11 11:18:22;;;;;;;;;14.20;13.00;;;;;20.14;67.33;99683.16;5115187;28;8836;-62
2023/05/11 11:20:51;;;;;;;;;10.40;9.40;;;;;20.21;66.82;99685.94;5114760;28;8831;-62
2023/05/11 11:23:19;;;;;;;;;16.20;12.00;;;;;20.45;65.86;99672.91;5114879;28;8858;-60
2023/05/11 11:25:48;;;;;;;;;17.20;14.60;;;;;21.00;64.64;99665.81;5115230;28;8816;-60
2023/05/11 11:28:16;;;;;;;;;19.60;18.60;;;;;21.53;63.79;99672.47;5115043;28;8820;-60
2023/05/11 11:30:44;;;;;;;;;15.40;14.40;;;;;22.09;62.31;99674.91;5115161;28;8940;-60